Terminal Aerodrome Forecast
Issued by NWS

Home | Current Version | Previous Version | Text Only | Print | Product List | Glossary On
Versions: 1 2 3 4 5 6 7 8 9 10 11 12 13 14 15 16 17 18 19
000
FTUS46 KEKA 311700
TAFCEC
TAF
KCEC 311721Z 3118/0118 18007KT 3SM BR OVC003
     FM312100 24008KT P6SM BKN005
      TEMPO 3122/0101 SCT005
     FM010100 22006KT 5SM BR BKN003
     FM010400 18006KT 2SM BR OVC003
     FM010800 VRB04KT 1/2SM FG VV002
     FM011700 21004KT 2SM BR OVC003=

USA.gov is the U.S. government's official web portal to all federal, state and local government web resources and services.